Time;durP1;ratioP1;P1;durP2;ratioP2;P2;SDS_P1;SDS_P2;PMS_P1;PMS_P2;Temp;Humidity;BMP_temperature;BMP_pressure;BME280_temperature;BME280_humidity;BME280_pressure;Samples;Min_cycle;Max_cycle;Signal;HPM_P1;HPM_P2
2023/05/08 00:01:34;;;;;;;14.55;11.30;;;12.90;99.90;;;;;;5038012;28;20615;-73
2023/05/08 00:03:59;;;;;;;13.57;11.73;;;13.00;99.90;;;;;;5026576;28;20068;-73
2023/05/08 00:06:26;;;;;;;14.43;11.57;;;12.90;99.90;;;;;;5035382;28;20029;-73
2023/05/08 00:08:53;;;;;;;13.38;11.48;;;12.80;99.90;;;;;;5035516;28;20132;-73
2023/05/08 00:11:18;;;;;;;13.45;11.45;;;12.80;99.90;;;;;;5037592;28;20064;-73
2023/05/08 00:13:44;;;;;;;14.10;11.63;;;12.80;99.90;;;;;;5055141;28;20041;-73
2023/05/08 00:16:11;;;;;;;14.70;12.38;;;12.80;99.90;;;;;;5053881;28;20406;-72
2023/05/08 00:18:37;;;;;;;14.63;11.88;;;12.80;99.90;;;;;;5037593;28;20037;-72
2023/05/08 00:21:04;;;;;;;15.68;12.27;;;12.80;99.90;;;;;;5037711;28;20052;-72
2023/05/08 00:23:29;;;;;;;14.20;11.75;;;12.80;99.90;;;;;;5054759;28;20033;-72
2023/05/08 00:25:55;;;;;;;14.65;11.80;;;12.70;99.90;;;;;;5055276;28;20037;-73
2023/05/08 00:28:20;;;;;;;15.68;12.57;;;12.70;99.90;;;;;;5054009;28;20044;-72
2023/05/08 00:30:46;;;;;;;14.20;11.65;;;12.70;99.90;;;;;;5054815;28;20076;-72
2023/05/08 00:33:11;;;;;;;16.25;12.57;;;12.70;99.90;;;;;;5054058;28;20044;-73
2023/05/08 00:35:39;;;;;;;15.30;11.88;;;12.70;99.90;;;;;;5054728;28;20090;-72
2023/05/08 00:38:05;;;;;;;17.20;12.80;;;12.70;99.90;;;;;;5054105;28;20044;-72
2023/05/08 00:40:30;;;;;;;13.85;11.35;;;12.60;99.90;;;;;;5054580;28;20417;-73
2023/05/08 00:42:56;;;;;;;13.88;11.75;;;12.60;99.90;;;;;;5037531;28;20036;-71
2023/05/08 00:45:22;;;;;;;14.93;11.95;;;12.50;99.90;;;;;;5050792;28;20037;-73
2023/05/08 00:47:49;;;;;;;15.32;11.93;;;12.50;99.90;;;;;;5034576;28;20440;-73
2023/05/08 00:50:15;;;;;;;14.88;11.75;;;12.50;99.90;;;;;;5034742;28;20127;-73
2023/05/08 00:52:40;;;;;;;13.80;11.75;;;12.50;99.90;;;;;;5027275;28;20080;-72
2023/05/08 00:55:06;;;;;;;15.45;12.43;;;12.50;99.90;;;;;;5054566;28;20045;-72
2023/05/08 00:57:35;;;;;;;14.45;12.55;;;12.50;99.90;;;;;;5053645;28;20055;-72
2023/05/08 01:00:03;;;;;;;14.65;11.50;;;12.40;99.90;;;;;;5050743;28;20045;-72
2023/05/08 01:02:30;;;;;;;13.75;11.98;;;12.40;99.90;;;;;;5053325;28;20068;-72
2023/05/08 01:04:56;;;;;;;16.58;11.98;;;12.40;99.90;;;;;;5053737;28;20041;-71
2023/05/08 01:07:21;;;;;;;14.25;12.00;;;12.30;99.90;;;;;;5054060;28;20547;-72
2023/05/08 01:09:48;;;;;;;14.68;12.73;;;12.30;99.90;;;;;;5051971;28;20115;-71
2023/05/08 01:12:29;;;;;;;15.40;12.55;;;12.20;99.90;;;;;;5051664;28;20048;-72
2023/05/08 01:15:00;;;;;;;14.63;12.32;;;12.20;99.90;;;;;;5053229;28;20413;-72
2023/05/08 01:17:51;;;;;;;16.17;12.60;;;12.20;99.90;;;;;;5053438;28;20125;-71
2023/05/08 01:20:29;;;;;;;14.98;12.77;;;12.20;99.90;;;;;;5017476;28;20041;-72
2023/05/08 01:23:19;;;;;;;15.88;12.88;;;12.20;99.90;;;;;;5061460;28;20037;-72
2023/05/08 01:26:21;;;;;;;13.98;11.82;;;12.20;99.90;;;;;;5051534;28;20434;-71
2023/05/08 01:29:05;;;;;;;14.50;11.57;;;12.10;99.90;;;;;;5034091;28;20414;-72
2023/05/08 01:31:58;;;;;;;16.70;12.77;;;12.10;99.90;;;;;;5017205;28;20045;-72
2023/05/08 01:34:29;;;;;;;15.10;12.05;;;12.10;99.90;;;;;;5070577;28;20461;-72
2023/05/08 01:37:05;;;;;;;15.48;12.75;;;12.10;99.90;;;;;;5053922;28;20438;-72
2023/05/08 01:39:59;;;;;;;14.60;12.02;;;12.10;99.90;;;;;;5036020;28;20037;-72
2023/05/08 01:42:27;;;;;;;15.23;12.70;;;12.00;99.90;;;;;;5007729;28;20405;-72
2023/05/08 01:45:00;;;;;;;15.63;12.15;;;11.90;99.90;;;;;;5034456;28;20088;-72
2023/05/08 01:47:29;;;;;;;15.82;12.35;;;11.90;99.90;;;;;;5053058;28;20424;-73
2023/05/08 01:50:06;;;;;;;14.85;11.98;;;11.90;99.90;;;;;;5053617;28;20459;-72
2023/05/08 01:52:35;;;;;;;15.35;11.93;;;11.90;99.90;;;;;;5035839;28;20067;-72
2023/05/08 01:55:06;;;;;;;14.63;12.45;;;11.90;99.90;;;;;;5053159;28;20060;-72
2023/05/08 01:57:34;;;;;;;15.52;12.63;;;11.70;99.90;;;;;;5051797;28;20033;-72
2023/05/08 02:00:03;;;;;;;14.18;11.77;;;11.80;99.90;;;;;;5048588;28;20040;-72
2023/05/08 02:02:30;;;;;;;15.80;12.82;;;11.80;99.90;;;;;;5035591;28;20542;-72
2023/05/08 02:04:57;;;;;;;17.17;12.95;;;11.80;99.90;;;;;;5052468;28;20367;-71
2023/05/08 02:07:23;;;;;;;16.65;13.30;;;11.80;99.90;;;;;;5029066;28;20037;-72
2023/05/08 02:09:50;;;;;;;15.35;12.00;;;11.80;99.90;;;;;;5033210;28;20037;-72
2023/05/08 02:12:17;;;;;;;15.65;12.23;;;11.80;99.90;;;;;;5034723;28;20041;-72
2023/05/08 02:14:45;;;;;;;15.02;12.55;;;11.80;99.90;;;;;;5052840;28;20052;-72
2023/05/08 02:17:13;;;;;;;14.45;11.80;;;11.80;99.90;;;;;;5051644;28;20037;-72
2023/05/08 02:19:40;;;;;;;16.17;11.93;;;11.70;99.90;;;;;;5035495;28;20040;-72
2023/05/08 02:22:07;;;;;;;15.75;12.32;;;11.70;99.90;;;;;;5051059;28;20037;-72
2023/05/08 02:24:34;;;;;;;14.73;12.48;;;11.70;99.90;;;;;;5052157;28;20040;-72
2023/05/08 02:27:00;;;;;;;14.70;12.05;;;11.60;99.90;;;;;;5051338;28;20076;-72
2023/05/08 02:29:28;;;;;;;16.70;14.38;;;11.60;99.90;;;;;;5052628;28;20037;-72
2023/05/08 02:31:55;;;;;;;15.63;11.98;;;11.50;99.90;;;;;;5050647;28;20520;-73
2023/05/08 02:34:23;;;;;;;15.52;12.40;;;11.50;99.90;;;;;;5051682;28;20037;-72
2023/05/08 02:36:51;;;;;;;15.25;12.73;;;11.50;99.90;;;;;;5051808;28;20033;-72
2023/05/08 02:39:17;;;;;;;14.75;12.25;;;11.50;99.90;;;;;;5036340;28;20034;-72
2023/05/08 02:41:43;;;;;;;14.07;12.18;;;11.50;99.90;;;;;;5015927;28;20494;-72
2023/05/08 02:44:09;;;;;;;14.25;12.07;;;11.50;99.90;;;;;;5016285;28;20038;-72
2023/05/08 02:46:57;;;;;;;14.55;11.50;;;11.50;99.90;;;;;;5044129;28;20123;-72
2023/05/08 02:49:42;;;;;;;16.25;11.80;;;11.50;99.90;;;;;;5051502;28;20124;-72
2023/05/08 02:52:13;;;;;;;14.57;11.32;;;11.50;99.90;;;;;;5048391;28;20096;-72
2023/05/08 02:54:43;;;;;;;14.93;12.48;;;11.50;99.90;;;;;;5052089;28;20052;-72
2023/05/08 02:57:27;;;;;;;16.17;11.77;;;11.40;99.90;;;;;;5051292;28;20040;-71
2023/05/08 03:00:02;;;;;;;15.57;11.85;;;11.40;99.90;;;;;;5035270;28;20508;-72
2023/05/08 03:02:34;;;;;;;13.48;11.20;;;11.40;99.90;;;;;;5046649;28;20051;-72
2023/05/08 03:05:07;;;;;;;14.32;11.50;;;11.40;99.90;;;;;;5050524;28;20441;-72
2023/05/08 03:07:37;;;;;;;14.23;12.27;;;11.40;99.90;;;;;;5050636;28;20044;-72
2023/05/08 03:10:06;;;;;;;15.88;12.77;;;11.30;99.90;;;;;;5047315;28;20044;-72
2023/05/08 03:12:37;;;;;;;15.15;12.63;;;11.30;99.90;;;;;;5050540;28;20485;-71
2023/05/08 03:15:11;;;;;;;14.70;12.15;;;11.20;99.90;;;;;;5051831;28;20080;-71
2023/05/08 03:17:39;;;;;;;14.20;11.80;;;11.10;99.90;;;;;;5049009;28;20037;-72
2023/05/08 03:20:08;;;;;;;14.05;11.13;;;11.10;99.90;;;;;;5015371;28;20041;-72
2023/05/08 03:22:37;;;;;;;14.35;11.80;;;11.00;99.90;;;;;;5020284;28;20036;-72
2023/05/08 03:25:06;;;;;;;14.82;11.65;;;11.00;99.90;;;;;;5042144;28;20041;-72
2023/05/08 03:27:33;;;;;;;13.82;11.32;;;11.00;99.90;;;;;;5049078;28;20385;-72
2023/05/08 03:30:01;;;;;;;13.93;11.40;;;11.00;99.90;;;;;;5014955;28;20122;-72
2023/05/08 03:32:28;;;;;;;14.63;11.55;;;11.00;99.90;;;;;;5051596;28;20067;-72
2023/05/08 03:34:57;;;;;;;14.52;11.30;;;11.00;99.90;;;;;;5051209;28;20102;-72
2023/05/08 03:37:23;;;;;;;14.85;11.77;;;10.90;99.90;;;;;;5055904;28;20051;-72
2023/05/08 03:39:50;;;;;;;16.95;11.93;;;11.00;99.90;;;;;;5037110;28;20705;-72
2023/05/08 03:42:20;;;;;;;14.98;12.27;;;10.90;99.90;;;;;;5054917;28;20077;-72
2023/05/08 03:44:50;;;;;;;15.45;12.50;;;10.80;99.90;;;;;;5054898;28;20048;-72
2023/05/08 03:47:17;;;;;;;14.50;12.07;;;10.70;99.90;;;;;;5054424;28;20090;-72
2023/05/08 03:49:45;;;;;;;15.18;12.00;;;10.70;99.90;;;;;;5036633;28;20041;-72
2023/05/08 03:52:14;;;;;;;15.43;11.63;;;10.70;99.90;;;;;;5042676;28;20061;-72
2023/05/08 03:54:40;;;;;;;14.32;11.90;;;10.70;99.90;;;;;;5051728;28;20505;-73
2023/05/08 03:57:06;;;;;;;14.32;11.95;;;10.60;99.90;;;;;;5035789;28;20079;-72
2023/05/08 03:59:38;;;;;;;15.15;12.52;;;10.60;99.90;;;;;;5036651;28;20044;-72
2023/05/08 04:02:25;;;;;;;15.68;12.50;;;10.50;99.90;;;;;;5036789;28;20044;-73
2023/05/08 04:05:00;;;;;;;15.48;12.75;;;10.40;99.90;;;;;;5036083;28;20444;-72
2023/05/08 04:07:41;;;;;;;15.73;12.75;;;10.50;99.90;;;;;;5055406;28;20040;-72
2023/05/08 04:10:16;;;;;;;15.35;12.27;;;10.40;99.90;;;;;;5054265;28;20033;-72
2023/05/08 04:13:06;;;;;;;16.10;12.23;;;10.40;99.90;;;;;;5034804;28;20087;-72
2023/05/08 04:15:36;;;;;;;15.05;12.18;;;10.40;99.90;;;;;;5034718;28;20406;-72
2023/05/08 04:18:15;;;;;;;16.63;13.45;;;10.40;99.90;;;;;;5034315;28;20048;-72
2023/05/08 04:20:42;;;;;;;16.85;13.27;;;10.30;99.90;;;;;;5052522;28;20041;-72
2023/05/08 04:23:10;;;;;;;14.95;12.43;;;10.40;99.90;;;;;;5020822;28;20390;-72
2023/05/08 04:25:38;;;;;;;16.15;12.70;;;10.40;99.90;;;;;;5053820;28;20048;-72
2023/05/08 04:28:04;;;;;;;14.75;12.60;;;10.50;99.90;;;;;;5036708;28;20511;-72
2023/05/08 04:30:30;;;;;;;16.00;12.23;;;10.40;99.90;;;;;;5052862;28;20489;-73
2023/05/08 04:32:56;;;;;;;14.93;12.32;;;10.40;99.90;;;;;;5054702;28;20045;-72
2023/05/08 04:35:22;;;;;;;14.77;11.82;;;10.40;99.90;;;;;;5047261;28;20041;-72
2023/05/08 04:37:48;;;;;;;14.23;11.30;;;10.40;99.90;;;;;;5018686;28;20041;-71
2023/05/08 04:40:13;;;;;;;14.13;11.27;;;10.40;99.90;;;;;;5037211;28;20033;-72
2023/05/08 04:42:41;;;;;;;13.85;10.32;;;10.50;99.90;;;;;;5035498;28;20033;-72
2023/05/08 04:45:08;;;;;;;14.75;11.70;;;10.60;99.90;;;;;;5041608;28;20112;-72
2023/05/08 04:47:34;;;;;;;17.05;12.15;;;10.70;99.90;;;;;;5045489;28;20041;-72
2023/05/08 04:50:00;;;;;;;15.30;10.68;;;10.60;99.90;;;;;;5037031;28;20037;-72
2023/05/08 04:52:25;;;;;;;14.23;11.18;;;10.70;99.90;;;;;;5037336;28;20497;-72
2023/05/08 04:54:51;;;;;;;13.68;11.02;;;10.80;99.90;;;;;;5052056;28;20049;-72
2023/05/08 04:57:17;;;;;;;14.98;11.85;;;10.70;99.90;;;;;;5052824;28;20378;-72
2023/05/08 04:59:42;;;;;;;15.55;11.30;;;10.70;99.90;;;;;;5052701;28;20041;-72
2023/05/08 05:02:08;;;;;;;14.80;11.25;;;10.80;99.90;;;;;;5054194;28;20493;-72
2023/05/08 05:04:35;;;;;;;14.43;11.35;;;10.80;99.90;;;;;;5053785;28;20151;-72
2023/05/08 05:07:01;;;;;;;15.02;11.57;;;10.80;99.90;;;;;;5034597;28;20198;-72
2023/05/08 05:09:27;;;;;;;13.05;10.52;;;10.80;99.90;;;;;;5050491;28;20401;-72
2023/05/08 05:11:53;;;;;;;14.02;11.18;;;10.90;99.90;;;;;;5036808;28;20048;-72
2023/05/08 05:14:19;;;;;;;13.63;10.82;;;10.90;99.90;;;;;;5045013;28;20037;-72
2023/05/08 05:16:45;;;;;;;14.00;11.48;;;10.90;99.90;;;;;;5033863;28;20665;-71
2023/05/08 05:19:10;;;;;;;14.82;10.95;;;10.90;99.90;;;;;;5045868;28;20056;-72
2023/05/08 05:21:39;;;;;;;14.43;11.60;;;10.90;99.90;;;;;;5034000;28;20033;-71
2023/05/08 05:24:05;;;;;;;13.98;10.02;;;10.90;99.90;;;;;;5050720;28;20501;-72
2023/05/08 05:26:31;;;;;;;13.80;10.93;;;11.00;99.90;;;;;;5034837;28;20489;-72
2023/05/08 05:28:57;;;;;;;13.45;10.85;;;11.00;99.90;;;;;;5052921;28;20048;-72
2023/05/08 05:31:22;;;;;;;14.00;11.38;;;11.00;99.90;;;;;;5029931;28;20132;-72
2023/05/08 05:33:48;;;;;;;13.55;11.20;;;11.00;99.90;;;;;;5033649;28;20073;-71
2023/05/08 05:36:14;;;;;;;13.90;11.30;;;11.00;99.90;;;;;;5034087;28;20037;-72
2023/05/08 05:38:39;;;;;;;15.80;11.15;;;11.10;99.90;;;;;;5017470;28;20409;-72
2023/05/08 05:41:05;;;;;;;13.57;11.13;;;11.10;99.90;;;;;;5035017;28;20041;-71
2023/05/08 05:43:32;;;;;;;13.43;10.85;;;11.20;99.90;;;;;;5064788;28;20513;-72
2023/05/08 05:46:06;;;;;;;13.55;10.57;;;11.20;99.90;;;;;;5021730;28;20281;-72
2023/05/08 05:48:32;;;;;;;14.90;11.38;;;11.20;99.90;;;;;;5020911;28;20091;-72
2023/05/08 05:50:58;;;;;;;13.63;10.77;;;11.20;99.90;;;;;;5027070;28;20513;-72
2023/05/08 05:53:23;;;;;;;12.25;10.40;;;11.40;99.90;;;;;;5022490;28;20124;-72
2023/05/08 05:55:49;;;;;;;12.82;10.88;;;11.30;99.90;;;;;;5038966;28;20044;-71
2023/05/08 05:58:15;;;;;;;13.25;11.07;;;11.50;99.90;;;;;;5048831;28;20569;-72
2023/05/08 06:00:42;;;;;;;13.40;11.07;;;11.60;99.90;;;;;;5061890;28;20033;-72
2023/05/08 06:03:09;;;;;;;14.50;11.52;;;11.70;99.90;;;;;;5037247;28;20040;-72
2023/05/08 06:05:35;;;;;;;13.02;10.65;;;11.70;99.90;;;;;;5042223;28;20037;-73
2023/05/08 06:08:00;;;;;;;12.90;10.60;;;11.80;99.90;;;;;;5043667;28;20068;-72
2023/05/08 06:10:26;;;;;;;12.65;10.30;;;11.90;99.90;;;;;;5045609;28;20183;-72
2023/05/08 06:12:52;;;;;;;13.80;10.50;;;11.90;99.90;;;;;;5034781;28;20047;-72
2023/05/08 06:15:18;;;;;;;13.68;10.93;;;12.10;99.90;;;;;;5033588;28;20051;-72
2023/05/08 06:17:43;;;;;;;14.82;10.63;;;12.20;99.90;;;;;;5044884;28;20044;-72
2023/05/08 06:20:09;;;;;;;13.63;10.40;;;12.30;99.90;;;;;;5021069;28;20037;-72
2023/05/08 06:22:36;;;;;;;12.10;9.80;;;12.40;99.90;;;;;;5043025;28;20025;-72
2023/05/08 06:25:02;;;;;;;14.05;11.45;;;12.50;99.90;;;;;;5028336;28;20037;-72
2023/05/08 06:27:28;;;;;;;12.50;9.95;;;12.50;99.90;;;;;;5036277;28;20080;-72
2023/05/08 06:29:53;;;;;;;14.82;10.02;;;12.60;99.90;;;;;;5027124;28;20076;-72
2023/05/08 06:32:19;;;;;;;15.07;10.90;;;12.70;99.90;;;;;;5052547;28;20165;-72
2023/05/08 06:34:45;;;;;;;12.60;10.38;;;12.80;99.90;;;;;;5035359;28;20041;-72
2023/05/08 06:37:11;;;;;;;13.35;11.50;;;12.80;99.90;;;;;;5051789;28;20044;-72
2023/05/08 06:39:36;;;;;;;13.98;10.70;;;12.80;99.90;;;;;;5023033;28;20036;-72
2023/05/08 06:42:05;;;;;;;12.75;10.65;;;13.00;99.90;;;;;;5035914;28;20117;-72
2023/05/08 06:44:31;;;;;;;13.13;10.70;;;13.00;99.90;;;;;;5040742;28;20094;-78
2023/05/08 06:46:57;;;;;;;13.65;10.75;;;12.90;99.90;;;;;;5050723;28;20404;-78
2023/05/08 06:49:22;;;;;;;12.48;10.05;;;12.90;99.90;;;;;;5032107;28;20045;-79
2023/05/08 06:51:48;;;;;;;12.23;9.63;;;13.00;99.90;;;;;;5037040;28;20056;-78
2023/05/08 06:54:13;;;;;;;12.98;10.55;;;13.20;99.90;;;;;;5038587;28;20068;-78
2023/05/08 06:56:39;;;;;;;13.73;10.75;;;13.20;99.90;;;;;;5046271;28;20056;-75
2023/05/08 06:59:05;;;;;;;12.50;10.93;;;13.10;99.90;;;;;;5048997;28;20083;-75
2023/05/08 07:01:30;;;;;;;13.73;10.80;;;13.20;99.90;;;;;;5050763;28;20036;-75
2023/05/08 07:03:56;;;;;;;12.82;10.68;;;13.30;99.90;;;;;;5050643;28;20037;-75
2023/05/08 07:06:21;;;;;;;12.65;10.60;;;13.30;99.90;;;;;;5043069;28;20544;-75
2023/05/08 07:08:47;;;;;;;11.85;9.98;;;13.50;99.90;;;;;;5046430;28;20127;-75
2023/05/08 07:11:13;;;;;;;13.88;10.38;;;13.50;99.90;;;;;;5050755;28;20562;-75
2023/05/08 07:13:38;;;;;;;13.30;10.35;;;13.50;99.90;;;;;;5033190;28;20038;-75
2023/05/08 07:16:10;;;;;;;13.27;10.43;;;13.50;99.90;;;;;;5015128;28;20091;-75
2023/05/08 07:18:36;;;;;;;13.57;10.65;;;13.50;99.90;;;;;;5037256;28;20116;-75
2023/05/08 07:21:02;;;;;;;15.75;11.02;;;13.60;99.90;;;;;;5030965;28;20566;-75
2023/05/08 07:23:28;;;;;;;14.10;11.45;;;13.60;99.90;;;;;;5031350;28;20045;-75
2023/05/08 07:25:53;;;;;;;14.68;11.02;;;13.70;99.90;;;;;;5036336;28;20174;-75
2023/05/08 07:28:19;;;;;;;12.52;10.15;;;13.70;99.90;;;;;;5050254;28;20044;-75
2023/05/08 07:30:45;;;;;;;14.02;11.15;;;13.80;99.90;;;;;;5048478;28;20033;-75
2023/05/08 07:33:11;;;;;;;13.25;10.40;;;13.80;99.90;;;;;;5046518;28;20104;-75
2023/05/08 07:35:38;;;;;;;16.08;11.27;;;13.70;99.90;;;;;;5030850;28;20069;-75
2023/05/08 07:38:04;;;;;;;12.88;10.73;;;13.70;99.90;;;;;;5037857;28;20550;-75
2023/05/08 07:40:30;;;;;;;14.50;10.90;;;13.60;99.90;;;;;;5045585;28;20179;-75
2023/05/08 07:42:55;;;;;;;14.75;10.77;;;13.60;99.90;;;;;;5045133;28;20424;-74
2023/05/08 07:45:21;;;;;;;13.05;10.40;;;13.70;99.90;;;;;;5044554;28;20094;-74
2023/05/08 07:47:55;;;;;;;15.95;10.90;;;13.70;99.90;;;;;;5034628;28;20142;-73
2023/05/08 07:50:21;;;;;;;12.63;9.68;;;13.70;99.90;;;;;;5043595;28;20041;-73
2023/05/08 07:52:47;;;;;;;13.52;10.25;;;13.80;99.90;;;;;;5047429;28;20489;-73
2023/05/08 07:55:14;;;;;;;13.35;10.30;;;14.00;99.90;;;;;;5046048;28;20040;-73
2023/05/08 07:57:41;;;;;;;13.68;11.35;;;13.90;99.90;;;;;;5031556;28;20052;-73
2023/05/08 08:00:12;;;;;;;16.67;11.50;;;13.80;99.90;;;;;;5028255;28;20034;-73
2023/05/08 08:02:38;;;;;;;13.68;11.30;;;13.80;99.90;;;;;;5044006;28;20063;-73
2023/05/08 08:05:04;;;;;;;14.23;11.98;;;13.70;99.90;;;;;;5030766;28;20049;-73
2023/05/08 08:07:31;;;;;;;15.45;11.77;;;13.80;99.90;;;;;;5051564;28;20067;-73
2023/05/08 08:09:57;;;;;;;14.27;11.23;;;13.80;99.90;;;;;;5046894;28;20132;-73
2023/05/08 08:12:23;;;;;;;15.10;12.32;;;13.90;99.90;;;;;;5049171;28;20041;-73
2023/05/08 08:14:49;;;;;;;13.00;10.75;;;14.00;99.90;;;;;;5048662;28;20389;-73
2023/05/08 08:17:14;;;;;;;13.75;11.13;;;14.20;99.90;;;;;;5063479;28;20045;-73
2023/05/08 08:19:40;;;;;;;14.23;10.57;;;14.30;99.90;;;;;;5044407;28;20044;-73
2023/05/08 08:22:06;;;;;;;13.38;11.35;;;14.30;99.90;;;;;;5036176;28;20037;-74
2023/05/08 08:24:31;;;;;;;14.07;11.63;;;14.30;99.90;;;;;;5027475;28;20036;-73
2023/05/08 08:26:57;;;;;;;13.85;11.95;;;14.40;99.90;;;;;;5055355;28;20710;-73
2023/05/08 08:29:23;;;;;;;19.50;12.27;;;14.40;99.90;;;;;;5053492;28;20543;-73
2023/05/08 08:31:48;;;;;;;13.63;11.60;;;14.50;99.90;;;;;;5052602;28;20045;-74
2023/05/08 08:34:14;;;;;;;15.02;12.55;;;14.50;99.90;;;;;;5048568;28;20029;-74
2023/05/08 08:36:40;;;;;;;13.15;10.90;;;14.60;99.90;;;;;;5051515;28;20101;-73
2023/05/08 08:39:05;;;;;;;13.00;11.05;;;14.90;99.90;;;;;;5039834;28;20033;-73
2023/05/08 08:41:32;;;;;;;13.25;11.65;;;14.90;99.90;;;;;;5051553;28;20038;-73
2023/05/08 08:43:58;;;;;;;17.88;13.68;;;14.80;99.90;;;;;;5038169;28;20335;-74
2023/05/08 08:46:25;;;;;;;14.70;12.73;;;14.80;99.90;;;;;;5035327;28;20131;-73
2023/05/08 08:48:53;;;;;;;14.23;12.45;;;14.90;99.90;;;;;;5036901;28;20060;-74
2023/05/08 08:51:24;;;;;;;13.77;12.23;;;14.90;99.90;;;;;;5070208;28;20119;-74
2023/05/08 08:53:54;;;;;;;16.42;12.68;;;14.90;99.90;;;;;;5050088;28;20045;-73
2023/05/08 08:56:22;;;;;;;14.38;12.85;;;15.00;99.90;;;;;;5026061;28;20056;-80
2023/05/08 08:58:54;;;;;;;14.88;12.13;;;14.90;99.90;;;;;;5037066;28;20045;-80
2023/05/08 09:01:20;;;;;;;14.43;12.82;;;15.00;99.90;;;;;;5042034;28;20049;-80
2023/05/08 09:03:46;;;;;;;15.27;13.02;;;15.00;99.90;;;;;;5045457;28;20039;-80
2023/05/08 09:06:12;;;;;;;16.45;11.88;;;15.20;99.90;;;;;;5052997;28;20041;-80
2023/05/08 09:08:40;;;;;;;15.77;12.52;;;15.30;99.90;;;;;;5050818;28;20076;-80
2023/05/08 09:11:06;;;;;;;19.17;13.38;;;15.50;99.90;;;;;;5031238;28;20047;-80
2023/05/08 09:13:32;;;;;;;16.30;13.00;;;15.60;99.90;;;;;;5047936;28;20405;-81
2023/05/08 09:15:58;;;;;;;22.88;15.82;;;15.70;99.90;;;;;;5048153;28;20051;-81
2023/05/08 09:18:24;;;;;;;18.23;14.40;;;15.80;99.90;;;;;;5044563;28;20037;-81
2023/05/08 09:20:50;;;;;;;15.27;13.68;;;15.90;99.90;;;;;;5049716;28;20370;-81
2023/05/08 09:23:16;;;;;;;15.27;13.18;;;16.00;99.90;;;;;;5031240;28;20061;-81
2023/05/08 09:25:49;;;;;;;15.95;13.27;;;16.10;99.90;;;;;;5024103;28;20393;-81
2023/05/08 09:28:25;;;;;;;15.25;13.20;;;16.20;99.90;;;;;;5049181;28;20045;-80
2023/05/08 09:30:53;;;;;;;17.65;14.13;;;16.50;99.90;;;;;;5049367;28;20045;-74
2023/05/08 09:33:20;;;;;;;15.40;12.38;;;16.60;99.90;;;;;;5051261;28;20053;-74
2023/05/08 09:35:49;;;;;;;14.75;13.15;;;16.70;99.90;;;;;;5039423;28;20401;-74
2023/05/08 09:38:34;;;;;;;14.48;12.25;;;16.90;99.90;;;;;;5035723;28;20039;-74
2023/05/08 09:41:14;;;;;;;14.90;12.57;;;17.10;99.90;;;;;;5047638;28;20064;-74
2023/05/08 09:43:42;;;;;;;14.82;12.35;;;17.30;99.90;;;;;;5042972;28;20090;-74
2023/05/08 09:46:25;;;;;;;15.48;13.07;;;17.40;99.90;;;;;;5033995;28;20073;-74
2023/05/08 09:48:58;;;;;;;15.10;12.23;;;17.50;99.90;;;;;;5050450;28;20155;-75
2023/05/08 09:51:25;;;;;;;15.57;12.93;;;17.60;99.90;;;;;;5052543;28;20131;-75
2023/05/08 09:53:52;;;;;;;14.60;12.85;;;17.80;99.90;;;;;;5038217;28;20052;-76
2023/05/08 09:56:35;;;;;;;14.40;12.45;;;17.90;99.90;;;;;;5045210;28;20049;-76
2023/05/08 09:59:03;;;;;;;15.27;12.32;;;17.90;99.90;;;;;;5033445;28;20495;-76
2023/05/08 10:01:34;;;;;;;16.35;13.35;;;18.10;99.90;;;;;;5033621;28;20041;-76
2023/05/08 10:04:04;;;;;;;17.02;15.27;;;18.20;99.90;;;;;;5034252;28;20052;-76
2023/05/08 10:06:30;;;;;;;17.42;14.93;;;18.20;99.90;;;;;;5053593;28;20497;-76
2023/05/08 10:09:26;;;;;;;18.10;15.77;;;18.30;99.90;;;;;;5053142;28;20472;-76
2023/05/08 10:11:53;;;;;;;19.52;16.40;;;18.40;99.90;;;;;;5025775;28;20053;-76
2023/05/08 10:14:19;;;;;;;17.00;14.60;;;18.40;99.90;;;;;;5037772;28;20045;-76
2023/05/08 10:16:48;;;;;;;18.73;16.70;;;18.50;99.90;;;;;;5046534;28;20090;-76
2023/05/08 10:19:18;;;;;;;16.63;14.82;;;18.60;99.90;;;;;;5051598;28;20481;-75
2023/05/08 10:21:52;;;;;;;18.85;16.05;;;18.70;99.90;;;;;;5035318;28;20123;-75
2023/05/08 10:24:26;;;;;;;19.48;15.07;;;18.80;99.90;;;;;;5046799;28;20456;-74
2023/05/08 10:26:57;;;;;;;16.67;14.15;;;18.90;99.90;;;;;;5033298;28;20474;-74
2023/05/08 10:29:51;;;;;;;17.67;15.73;;;18.90;99.90;;;;;;5047115;28;20439;-75
2023/05/08 10:32:20;;;;;;;18.70;15.68;;;18.90;99.90;;;;;;5048356;28;20490;-74
2023/05/08 10:34:52;;;;;;;18.48;16.67;;;19.00;99.90;;;;;;5039784;28;20568;-74
2023/05/08 10:37:18;;;;;;;19.27;15.80;;;18.90;99.90;;;;;;5042674;28;20049;-74
2023/05/08 10:39:45;;;;;;;19.27;16.80;;;19.00;99.90;;;;;;5053738;28;20028;-75
2023/05/08 10:42:14;;;;;;;18.42;14.95;;;19.10;99.90;;;;;;5052058;28;20120;-76
2023/05/08 10:44:39;;;;;;;18.60;15.13;;;19.20;99.90;;;;;;5034465;28;20125;-81
2023/05/08 10:47:34;;;;;;;16.20;14.50;;;19.10;99.90;;;;;;5049717;28;20119;-82
2023/05/08 10:50:15;;;;;;;17.02;15.23;;;19.20;99.90;;;;;;5032720;28;20057;-80
2023/05/08 10:52:53;;;;;;;18.85;16.90;;;19.30;99.90;;;;;;5035280;28;20057;-78
2023/05/08 10:55:31;;;;;;;16.38;14.27;;;19.40;99.90;;;;;;5044169;28;20047;-77
2023/05/08 10:58:11;;;;;;;17.83;15.98;;;19.50;99.90;;;;;;5042886;28;20025;-76
2023/05/08 11:00:51;;;;;;;18.20;15.35;;;19.50;99.90;;;;;;5034527;28;20037;-75
2023/05/08 11:03:22;;;;;;;19.08;16.42;;;19.70;99.90;;;;;;5050110;28;20029;-75
2023/05/08 11:05:51;;;;;;;18.60;15.90;;;19.70;99.90;;;;;;5037451;28;20073;-75
2023/05/08 11:08:18;;;;;;;17.10;15.10;;;19.70;99.90;;;;;;5037366;28;20514;-77
2023/05/08 11:10:50;;;;;;;18.13;15.40;;;19.80;99.90;;;;;;5041519;28;20037;-76
2023/05/08 11:13:18;;;;;;;21.52;16.92;;;19.90;99.90;;;;;;5050564;28;20114;-73
2023/05/08 11:15:49;;;;;;;18.83;14.93;;;19.70;99.90;;;;;;5046821;28;20037;-74
2023/05/08 11:18:16;;;;;;;18.10;16.08;;;19.80;99.90;;;;;;5042044;28;20032;-73
2023/05/08 11:20:57;;;;;;;17.65;14.55;;;19.80;99.90;;;;;;5056784;28;20063;-73
2023/05/08 11:23:24;;;;;;;20.10;16.73;;;19.90;99.90;;;;;;5034297;28;20048;-73
2023/05/08 11:26:02;;;;;;;17.95;15.93;;;19.90;99.90;;;;;;5047092;28;20034;-73
2023/05/08 11:28:31;;;;;;;18.65;16.27;;;20.00;99.90;;;;;;5023794;28;20040;-73
2023/05/08 11:31:03;;;;;;;19.08;16.38;;;20.00;99.90;;;;;;5025322;28;20087;-73
2023/05/08 11:33:30;;;;;;;17.70;15.85;;;20.10;99.90;;;;;;5039108;28;20049;-73
2023/05/08 11:36:15;;;;;;;17.40;15.60;;;20.10;99.90;;;;;;5039807;28;20104;-73
2023/05/08 11:38:42;;;;;;;14.93;13.35;;;20.10;99.90;;;;;;5032840;28;20036;-73
2023/05/08 11:41:10;;;;;;;13.93;11.95;;;20.10;99.90;;;;;;5045330;28;20045;-73
2023/05/08 11:44:08;;;;;;;15.98;12.98;;;20.10;99.90;;;;;;5048481;28;20037;-73
2023/05/08 11:46:38;;;;;;;14.82;13.23;;;20.10;99.90;;;;;;5023887;28;20458;-73
2023/05/08 11:49:04;;;;;;;14.93;12.95;;;20.10;99.90;;;;;;5024184;28;20500;-73
2023/05/08 11:51:31;;;;;;;15.07;11.60;;;20.10;99.90;;;;;;5032729;28;20088;-74
2023/05/08 11:53:58;;;;;;;18.00;13.90;;;20.20;99.90;;;;;;5039086;28;20036;-73
2023/05/08 11:56:25;;;;;;;18.00;13.57;;;20.30;99.90;;;;;;5052923;28;20128;-74
2023/05/08 11:59:02;;;;;;;15.50;13.50;;;20.40;99.90;;;;;;5054507;28;20051;-74
2023/05/08 12:01:29;;;;;;;15.05;13.30;;;20.20;99.90;;;;;;5044966;28;20038;-74
2023/05/08 12:04:05;;;;;;;16.85;14.43;;;20.20;99.90;;;;;;5037769;28;20040;-74
2023/05/08 12:06:32;;;;;;;16.27;13.90;;;20.30;99.90;;;;;;5053915;28;20079;-74
2023/05/08 12:08:59;;;;;;;16.30;12.93;;;20.40;99.90;;;;;;5052801;28;20044;-74
2023/05/08 12:11:25;;;;;;;18.23;15.70;;;20.50;99.90;;;;;;5054881;28;20048;-74
2023/05/08 12:13:52;;;;;;;17.75;15.02;;;20.40;99.90;;;;;;5038622;28;20045;-74
2023/05/08 12:16:20;;;;;;;16.80;15.05;;;20.40;99.90;;;;;;5054452;28;20070;-74
2023/05/08 12:18:48;;;;;;;16.35;13.30;;;20.40;99.90;;;;;;5048264;28;20107;-74
2023/05/08 12:21:14;;;;;;;16.13;14.43;;;20.60;99.90;;;;;;5048503;28;20044;-74
2023/05/08 12:23:39;;;;;;;15.98;14.27;;;20.70;99.90;;;;;;5035359;28;20038;-80
2023/05/08 12:26:07;;;;;;;18.38;13.80;;;20.80;99.90;;;;;;5040706;28;20126;-80
2023/05/08 12:28:33;;;;;;;15.57;13.70;;;20.80;99.90;;;;;;5046306;28;20060;-80
2023/05/08 12:30:59;;;;;;;14.80;12.45;;;20.70;99.90;;;;;;5050064;28;20041;-81
2023/05/08 12:33:25;;;;;;;16.70;14.25;;;20.80;99.90;;;;;;5030968;28;20052;-81
2023/05/08 12:35:51;;;;;;;14.77;13.00;;;20.80;99.90;;;;;;5058495;28;20576;-81
2023/05/08 12:38:17;;;;;;;15.82;12.23;;;20.60;99.90;;;;;;5064961;28;20120;-79